createdAt,value
2018-04-30T00:02:07.295Z,17.40
2018-04-30T00:05:09.752Z,17.30
2018-04-30T00:08:12.205Z,17.30
2018-04-30T00:11:15.431Z,17.20
2018-04-30T00:14:17.886Z,17.20
2018-04-30T00:17:21.110Z,17.10
2018-04-30T00:20:23.570Z,17.20
2018-04-30T00:23:26.785Z,17.10
2018-04-30T00:26:29.257Z,17.10
2018-04-30T00:29:31.701Z,17.10
2018-04-30T00:32:34.933Z,17.10
2018-04-30T00:35:37.386Z,17.10
2018-04-30T00:38:40.603Z,17.10
2018-04-30T00:41:43.066Z,17.00
2018-04-30T00:44:45.521Z,17.00
2018-04-30T00:47:48.761Z,17.00
2018-04-30T00:50:51.265Z,16.90
2018-04-30T00:53:53.673Z,16.90
2018-04-30T00:56:56.902Z,16.80
2018-04-30T00:59:59.368Z,16.80
2018-04-30T01:03:01.810Z,16.80
2018-04-30T01:06:05.045Z,16.80
2018-04-30T01:09:07.494Z,16.70
2018-04-30T01:12:10.721Z,16.80
2018-04-30T01:15:13.165Z,16.70
2018-04-30T01:18:15.623Z,16.80
2018-04-30T01:21:18.086Z,16.70
2018-04-30T01:24:20.542Z,16.70
2018-04-30T01:27:23.001Z,16.70
2018-04-30T01:30:25.464Z,16.70
2018-04-30T01:33:27.921Z,16.70
2018-04-30T01:36:31.146Z,16.80
2018-04-30T01:39:33.598Z,16.70
2018-04-30T01:42:36.821Z,16.80
2018-04-30T01:45:39.265Z,16.70
2018-04-30T01:48:42.490Z,16.70
2018-04-30T01:51:44.950Z,16.70
2018-04-30T01:54:47.393Z,16.70
2018-04-30T01:57:49.845Z,16.70
2018-04-30T02:00:52.298Z,16.60
2018-04-30T02:03:54.762Z,16.50
2018-04-30T02:06:57.217Z,16.50
2018-04-30T02:10:00.438Z,16.40
2018-04-30T02:13:02.911Z,16.40
2018-04-30T02:16:05.365Z,16.40
2018-04-30T02:19:08.590Z,16.30
2018-04-30T02:22:11.046Z,16.30
2018-04-30T02:25:13.501Z,16.30
2018-04-30T02:28:16.753Z,16.30
2018-04-30T02:31:19.203Z,16.30
2018-04-30T02:34:21.654Z,16.30
2018-04-30T02:37:24.874Z,16.20
2018-04-30T02:40:27.332Z,16.20
2018-04-30T02:43:30.549Z,16.20
2018-04-30T02:46:33.008Z,16.20
2018-04-30T02:49:36.218Z,16.30
2018-04-30T02:52:38.673Z,16.30
2018-04-30T02:55:41.894Z,16.20
2018-04-30T02:58:44.350Z,16.20
2018-04-30T03:01:46.823Z,16.20
2018-04-30T03:04:50.026Z,16.10
2018-04-30T03:07:52.486Z,16.10
2018-04-30T03:10:55.706Z,16.00
2018-04-30T03:13:58.167Z,16.00
2018-04-30T03:17:01.397Z,15.80
2018-04-30T03:20:03.837Z,15.80
2018-04-30T03:23:06.298Z,15.80
2018-04-30T03:26:09.509Z,15.90
2018-04-30T03:29:11.973Z,15.90
2018-04-30T03:32:15.198Z,15.80
2018-04-30T03:35:17.637Z,15.80
2018-04-30T03:38:20.864Z,15.70
2018-04-30T03:41:23.313Z,15.70
2018-04-30T03:44:26.538Z,15.60
2018-04-30T03:47:28.993Z,15.60
2018-04-30T03:50:32.208Z,15.60
2018-04-30T03:53:34.662Z,15.50
2018-04-30T03:56:37.877Z,15.60
2018-04-30T03:59:40.351Z,15.60
2018-04-30T04:06:42.046Z,15.50
2018-04-30T04:09:44.493Z,15.50
2018-04-30T04:12:46.976Z,15.60
2018-04-30T04:15:49.397Z,15.70
2018-04-30T04:18:51.853Z,15.80
2018-04-30T04:21:54.301Z,15.80
2018-04-30T04:24:57.523Z,16.00
2018-04-30T04:27:59.987Z,16.00
2018-04-30T04:31:02.434Z,16.00
2018-04-30T04:34:04.889Z,16.10
2018-04-30T04:37:07.340Z,16.10
2018-04-30T04:40:09.804Z,16.30
2018-04-30T04:43:12.267Z,16.30
2018-04-30T04:46:14.713Z,16.50
2018-04-30T04:49:17.167Z,16.50
2018-04-30T04:52:19.625Z,16.60
2018-04-30T04:55:22.080Z,16.60
2018-04-30T04:58:24.538Z,16.60
2018-04-30T05:01:27.763Z,16.60
2018-04-30T05:04:30.224Z,16.60
2018-04-30T05:07:32.682Z,16.70
2018-04-30T05:10:35.902Z,16.80
2018-04-30T05:13:38.358Z,16.80
2018-04-30T05:16:41.570Z,17.00
2018-04-30T05:19:44.025Z,17.00
2018-04-30T05:22:47.253Z,16.70
2018-04-30T05:25:49.698Z,16.70
2018-04-30T05:28:52.921Z,16.50
2018-04-30T05:31:55.398Z,16.50
2018-04-30T05:34:57.865Z,16.60
2018-04-30T05:38:00.325Z,16.90
2018-04-30T05:41:03.542Z,17.10
2018-04-30T05:44:05.997Z,17.10
2018-04-30T05:47:09.223Z,17.60
2018-04-30T05:50:11.673Z,17.60
2018-04-30T05:53:14.140Z,18.80
2018-04-30T05:56:16.581Z,19.00
2018-04-30T05:59:19.046Z,19.80
2018-04-30T06:02:21.489Z,19.80
2018-04-30T06:05:23.945Z,18.80
2018-04-30T06:08:27.169Z,17.70
2018-04-30T06:11:29.620Z,17.60
2018-04-30T06:14:32.837Z,17.30
2018-04-30T06:17:35.279Z,17.30
2018-04-30T06:20:38.527Z,16.90
2018-04-30T06:23:40.949Z,16.90
2018-04-30T06:26:43.437Z,16.90
2018-04-30T06:29:45.837Z,16.80
2018-04-30T06:32:48.304Z,16.80
2018-04-30T06:35:54.690Z,16.80
2018-04-30T06:38:58.035Z,16.70
2018-04-30T06:42:05.825Z,16.60
2018-04-30T06:45:31.423Z,16.30
2018-04-30T06:48:35.781Z,16.30
2018-04-30T06:51:49.986Z,16.30
2018-04-30T06:54:53.425Z,16.20
2018-04-30T06:57:56.826Z,16.10
2018-04-30T07:01:00.213Z,16.00
2018-04-30T07:04:03.622Z,15.90
2018-04-30T07:07:13.230Z,15.90
2018-04-30T07:10:16.679Z,15.90
2018-04-30T07:13:25.362Z,15.80
2018-04-30T07:16:29.715Z,15.80
2018-04-30T07:19:35.461Z,15.60
2018-04-30T07:22:37.910Z,15.60
2018-04-30T07:25:42.261Z,15.60
2018-04-30T07:29:03.849Z,15.50
2018-04-30T07:32:09.742Z,15.50
2018-04-30T07:35:14.176Z,15.50
2018-04-30T07:38:27.789Z,15.50
2018-04-30T07:41:40.993Z,15.50
2018-04-30T07:48:33.270Z,15.50
2018-04-30T07:51:40.686Z,15.30
2018-04-30T07:54:43.157Z,15.30
2018-04-30T07:57:50.970Z,15.20
2018-04-30T08:01:04.893Z,15.20
2018-04-30T08:04:09.333Z,15.20
2018-04-30T08:07:19.780Z,15.20
2018-04-30T08:10:32.493Z,15.10
2018-04-30T08:13:38.793Z,15.30
2018-04-30T08:16:41.230Z,15.40
2018-04-30T08:19:44.658Z,15.60
2018-04-30T08:23:07.785Z,15.90
2018-04-30T08:26:15.945Z,16.30
2018-04-30T08:29:21.073Z,17.40
2018-04-30T08:36:02.552Z,17.70
2018-04-30T08:39:06.916Z,17.60
2018-04-30T08:42:16.205Z,18.50
2018-04-30T08:45:29.641Z,18.50
2018-04-30T08:59:21.844Z,17.90
2018-04-30T09:02:25.270Z,17.20
2018-04-30T09:05:35.713Z,16.70
2018-04-30T09:09:03.785Z,16.30
2018-04-30T09:12:07.206Z,15.80
2018-04-30T09:18:49.713Z,15.00
2018-04-30T09:22:02.634Z,14.80
2018-04-30T09:25:05.088Z,14.60
2018-04-30T09:28:09.471Z,14.70
2018-04-30T09:31:18.265Z,14.90
2018-04-30T09:34:22.622Z,15.10
2018-04-30T09:37:25.066Z,15.20
2018-04-30T09:40:41.454Z,15.40
2018-04-30T09:43:51.022Z,15.60
2018-04-30T09:46:53.466Z,15.50
2018-04-30T09:49:59.475Z,15.40
2018-04-30T09:53:02.866Z,15.50
2018-04-30T09:56:18.395Z,15.50
2018-04-30T09:59:20.841Z,15.30
2018-04-30T10:02:24.068Z,14.80
2018-04-30T10:05:26.517Z,14.80
2018-04-30T10:08:29.734Z,15.00
2018-04-30T10:11:32.181Z,15.00
2018-04-30T10:14:35.444Z,15.10
2018-04-30T10:17:41.181Z,15.10
2018-04-30T10:20:45.550Z,14.90
2018-04-30T10:23:49.775Z,14.40
2018-04-30T10:26:55.626Z,14.30
2018-04-30T10:30:05.546Z,14.10
2018-04-30T10:36:38.694Z,14.00
2018-04-30T10:39:41.151Z,14.00
2018-04-30T10:42:43.630Z,14.10
2018-04-30T10:45:46.119Z,14.20
2018-04-30T10:48:48.560Z,14.20
2018-04-30T10:51:51.013Z,14.20
2018-04-30T10:54:53.469Z,14.40
2018-04-30T10:57:56.677Z,14.90
2018-04-30T11:01:17.082Z,14.80
2018-04-30T11:04:31.942Z,15.10
2018-04-30T11:07:34.391Z,15.30
2018-04-30T11:10:37.617Z,15.80
2018-04-30T11:13:55.247Z,15.80
2018-04-30T11:17:11.039Z,16.20
2018-04-30T11:20:13.498Z,16.20
2018-04-30T11:23:16.706Z,16.10
2018-04-30T11:26:39.170Z,16.00
2018-04-30T11:29:48.630Z,16.10
2018-04-30T11:32:51.109Z,15.90
2018-04-30T11:35:53.566Z,15.60
2018-04-30T11:38:56.015Z,15.40
2018-04-30T11:45:43.786Z,15.20
2018-04-30T11:48:46.239Z,15.60
2018-04-30T11:51:53.510Z,16.10
2018-04-30T11:54:55.966Z,16.10
2018-04-30T11:58:04.202Z,15.90
2018-04-30T12:01:06.662Z,15.70
2018-04-30T12:04:09.108Z,15.60
2018-04-30T12:07:12.545Z,15.50
2018-04-30T12:10:14.997Z,15.70
2018-04-30T12:13:17.446Z,16.00
2018-04-30T12:16:19.909Z,15.90
2018-04-30T12:19:22.350Z,15.80
2018-04-30T12:22:24.801Z,15.80
2018-04-30T12:25:27.249Z,16.00
2018-04-30T12:28:29.692Z,16.00
2018-04-30T12:31:32.914Z,16.00
2018-04-30T12:34:35.366Z,16.00
2018-04-30T12:37:38.572Z,16.10
2018-04-30T12:40:41.793Z,16.20
2018-04-30T12:43:44.287Z,16.20
2018-04-30T12:46:47.453Z,16.30
2018-04-30T12:49:49.956Z,16.30
2018-04-30T12:52:53.121Z,16.30
2018-04-30T12:55:55.573Z,16.30
2018-04-30T12:58:58.013Z,16.20
2018-04-30T13:02:00.461Z,16.20
2018-04-30T13:05:02.909Z,16.30
2018-04-30T13:08:06.126Z,16.30
2018-04-30T13:11:08.569Z,16.30
2018-04-30T13:14:11.790Z,16.30
2018-04-30T13:17:14.241Z,16.30
2018-04-30T13:20:17.455Z,16.40
2018-04-30T13:23:19.897Z,16.40
2018-04-30T13:26:22.346Z,16.40
2018-04-30T13:29:24.789Z,16.40
2018-04-30T13:32:27.237Z,16.50
2018-04-30T13:35:30.454Z,16.20
2018-04-30T13:38:32.894Z,16.20
2018-04-30T13:41:35.352Z,16.40
2018-04-30T13:44:37.798Z,16.60
2018-04-30T13:47:40.245Z,16.60
2018-04-30T13:50:43.458Z,16.40
2018-04-30T13:53:45.901Z,16.40
2018-04-30T13:56:48.349Z,16.50
2018-04-30T13:59:50.793Z,16.40
2018-04-30T14:02:53.241Z,16.30
2018-04-30T14:05:56.461Z,16.10
2018-04-30T14:08:58.906Z,16.10
2018-04-30T14:12:07.764Z,16.10
2018-04-30T14:15:10.210Z,16.30
2018-04-30T14:18:12.654Z,16.50
2018-04-30T14:21:15.121Z,16.60
2018-04-30T14:24:17.566Z,16.60
2018-04-30T14:27:20.023Z,16.50
2018-04-30T14:30:29.038Z,16.50
2018-04-30T14:33:31.481Z,16.50
2018-04-30T14:36:33.937Z,16.40
2018-04-30T14:39:36.386Z,16.40
2018-04-30T14:42:39.610Z,16.70
2018-04-30T14:45:42.057Z,16.70
2018-04-30T14:48:45.270Z,16.80
2018-04-30T14:51:47.716Z,16.80
2018-04-30T14:55:01.626Z,16.80
2018-04-30T14:58:04.079Z,16.60
2018-04-30T15:01:06.529Z,16.50
2018-04-30T15:04:09.736Z,16.30
2018-04-30T15:07:12.189Z,16.30
2018-04-30T15:10:15.401Z,16.60
2018-04-30T15:13:17.862Z,16.60
2018-04-30T15:16:20.313Z,16.60
2018-04-30T15:19:22.758Z,16.80
2018-04-30T15:22:25.214Z,17.00
2018-04-30T15:25:27.670Z,17.00
2018-04-30T15:28:30.883Z,16.70
2018-04-30T15:31:33.329Z,16.70
2018-04-30T15:34:35.782Z,16.50
2018-04-30T15:37:38.238Z,16.40
2018-04-30T15:40:40.693Z,16.40
2018-04-30T15:43:43.142Z,16.40
2018-04-30T15:46:46.361Z,16.40
2018-04-30T15:49:48.802Z,16.40
2018-04-30T15:52:51.254Z,16.40
2018-04-30T15:55:53.705Z,16.30
2018-04-30T15:58:56.145Z,16.30
2018-04-30T16:01:59.371Z,16.30
2018-04-30T16:05:05.578Z,16.20
2018-04-30T16:08:08.034Z,16.40
2018-04-30T16:11:10.486Z,16.30
2018-04-30T16:14:12.970Z,16.40
2018-04-30T16:17:16.152Z,16.30
2018-04-30T16:20:18.607Z,16.30
2018-04-30T16:23:21.822Z,16.20
2018-04-30T16:26:24.278Z,16.20
2018-04-30T16:29:27.488Z,16.10
2018-04-30T16:32:29.938Z,16.20
2018-04-30T16:35:33.154Z,16.10
2018-04-30T16:38:35.600Z,16.10
2018-04-30T16:41:38.058Z,16.20
2018-04-30T16:44:40.507Z,16.20
2018-04-30T16:47:42.954Z,16.10
2018-04-30T16:50:46.169Z,16.00
2018-04-30T16:53:48.617Z,15.90
2018-04-30T16:56:51.842Z,15.80
2018-04-30T16:59:54.277Z,15.80
2018-04-30T17:02:57.490Z,15.80
2018-04-30T17:05:59.966Z,15.70
2018-04-30T17:09:03.174Z,15.70
2018-04-30T17:12:05.623Z,15.70
2018-04-30T17:15:08.829Z,15.70
2018-04-30T17:18:12.047Z,15.60
2018-04-30T17:21:14.494Z,15.60
2018-04-30T17:24:17.709Z,15.40
2018-04-30T17:27:20.162Z,15.40
2018-04-30T17:30:23.456Z,15.30
2018-04-30T17:33:25.822Z,15.30
2018-04-30T17:36:28.279Z,15.30
2018-04-30T17:39:30.709Z,15.20
2018-04-30T17:42:33.166Z,15.10
2018-04-30T17:45:36.378Z,15.00
2018-04-30T17:48:38.832Z,15.00
2018-04-30T17:51:42.049Z,14.80
2018-04-30T17:54:44.494Z,14.80
2018-04-30T17:57:46.945Z,14.80
2018-04-30T18:00:49.392Z,14.80
2018-04-30T18:03:51.838Z,14.70
2018-04-30T18:06:55.135Z,14.60
2018-04-30T18:09:57.509Z,14.60
2018-04-30T18:13:00.727Z,14.50
2018-04-30T18:16:03.180Z,14.50
2018-04-30T18:19:06.395Z,14.40
2018-04-30T18:22:08.853Z,14.40
2018-04-30T18:25:12.061Z,14.20
2018-04-30T18:28:14.509Z,14.20
2018-04-30T18:31:17.721Z,14.10
2018-04-30T18:34:20.173Z,14.00
2018-04-30T18:37:22.625Z,14.00
2018-04-30T18:40:25.079Z,14.00
2018-04-30T18:43:27.525Z,13.90
2018-04-30T18:46:29.979Z,13.80
2018-04-30T18:49:32.428Z,13.80
2018-04-30T18:52:34.877Z,13.70
2018-04-30T18:55:37.322Z,13.70
2018-04-30T18:58:40.554Z,13.50
2018-04-30T19:01:42.997Z,13.50
2018-04-30T19:04:46.201Z,13.40
2018-04-30T19:07:48.649Z,13.30
2018-04-30T19:10:51.089Z,13.30
2018-04-30T19:13:53.542Z,13.20
2018-04-30T19:16:55.998Z,13.20
2018-04-30T19:19:58.437Z,13.10
2018-04-30T19:23:00.886Z,13.10
2018-04-30T19:26:03.342Z,13.00
2018-04-30T19:29:05.795Z,12.90
2018-04-30T19:32:09.022Z,12.80
2018-04-30T19:35:11.473Z,12.80
2018-04-30T19:38:14.685Z,12.70
2018-04-30T19:41:17.138Z,12.60
2018-04-30T19:44:20.357Z,12.40
2018-04-30T19:47:22.805Z,12.40
2018-04-30T19:50:26.022Z,12.40
2018-04-30T19:53:28.473Z,12.40
2018-04-30T19:56:30.917Z,12.40
2018-04-30T19:59:33.373Z,12.40
2018-04-30T20:02:35.830Z,12.40
2018-04-30T20:05:38.273Z,12.30
2018-04-30T20:08:40.737Z,12.20
2018-04-30T20:11:43.181Z,12.20
2018-04-30T20:14:45.632Z,12.10
2018-04-30T20:17:48.089Z,12.00
2018-04-30T20:20:50.531Z,11.90
2018-04-30T20:23:52.987Z,11.80
2018-04-30T20:26:55.431Z,11.80
2018-04-30T20:29:58.649Z,11.70
2018-04-30T20:33:01.102Z,11.70
2018-04-30T20:36:03.545Z,11.70
2018-04-30T20:39:06.002Z,11.70
2018-04-30T20:42:08.465Z,11.80
2018-04-30T20:45:10.925Z,11.80
2018-04-30T20:48:13.369Z,11.90
2018-04-30T20:51:15.805Z,12.00
2018-04-30T20:54:18.263Z,12.00
2018-04-30T20:57:20.709Z,12.10
2018-04-30T21:00:23.166Z,12.10
2018-04-30T21:03:25.610Z,12.10
2018-04-30T21:06:28.076Z,12.10
2018-04-30T21:09:30.513Z,12.00
2018-04-30T21:12:32.969Z,12.10
2018-04-30T21:15:35.402Z,12.00
2018-04-30T21:18:37.854Z,12.00
2018-04-30T21:21:40.293Z,11.90
2018-04-30T21:24:42.757Z,11.90
2018-04-30T21:27:45.211Z,11.90
2018-04-30T21:30:47.666Z,11.80
2018-04-30T21:33:50.118Z,11.80
2018-04-30T21:36:53.326Z,11.70
2018-04-30T21:39:55.779Z,11.70
2018-04-30T21:42:58.230Z,11.60
2018-04-30T21:46:00.676Z,11.60
2018-04-30T21:49:03.122Z,11.70
2018-04-30T21:52:06.334Z,11.70
2018-04-30T21:55:08.789Z,11.70
2018-04-30T21:58:12.006Z,11.80
2018-04-30T22:01:14.454Z,11.70
2018-04-30T22:04:17.678Z,11.80
2018-04-30T22:07:20.129Z,11.70
2018-04-30T22:10:23.349Z,11.70
2018-04-30T22:13:25.797Z,11.70
2018-04-30T22:16:29.014Z,11.70
2018-04-30T22:19:31.461Z,11.70
2018-04-30T22:22:33.901Z,11.70
2018-04-30T22:25:36.354Z,11.60
2018-04-30T22:28:38.813Z,11.60
2018-04-30T22:31:41.254Z,11.60
2018-04-30T22:34:43.706Z,11.50
2018-04-30T22:37:46.159Z,11.50
2018-04-30T22:40:48.605Z,11.40
2018-04-30T22:43:51.834Z,11.50
2018-04-30T22:46:54.277Z,11.40
2018-04-30T22:49:57.497Z,11.50
2018-04-30T22:52:59.954Z,11.50
2018-04-30T22:56:03.183Z,11.30
2018-04-30T22:59:05.626Z,11.30
2018-04-30T23:02:08.837Z,11.20
2018-04-30T23:05:11.293Z,11.10
2018-04-30T23:08:14.510Z,11.10
2018-04-30T23:11:16.957Z,11.00
2018-04-30T23:14:19.401Z,11.00
2018-04-30T23:17:21.844Z,10.90
2018-04-30T23:20:24.293Z,10.90
2018-04-30T23:23:27.522Z,10.80
2018-04-30T23:26:29.965Z,10.80
2018-04-30T23:29:33.186Z,10.70
2018-04-30T23:32:35.625Z,10.70
2018-04-30T23:35:38.074Z,10.70
2018-04-30T23:38:40.537Z,10.70
2018-04-30T23:41:42.984Z,10.60
2018-04-30T23:44:45.434Z,10.60
2018-04-30T23:47:48.654Z,10.50
2018-04-30T23:50:51.110Z,10.40
2018-04-30T23:53:54.326Z,10.30
2018-04-30T23:56:56.766Z,10.30
2018-04-30T23:59:59.215Z,10.30
